createdAt,value
2023-05-14T00:00:27.093Z,11.68
2023-05-14T00:02:54.614Z,11.37
2023-05-14T00:05:21.605Z,11.06
2023-05-14T00:07:48.543Z,10.78
2023-05-14T00:10:15.374Z,10.52
2023-05-14T00:12:42.462Z,10.31
2023-05-14T00:15:09.981Z,10.13
2023-05-14T00:17:37.923Z,9.95
2023-05-14T00:20:07.465Z,9.81
2023-05-14T00:22:35.251Z,9.88
2023-05-14T00:25:02.790Z,10.82
2023-05-14T00:27:30.448Z,11.62
2023-05-14T00:29:57.716Z,12.25
2023-05-14T00:32:25.465Z,12.94
2023-05-14T00:34:52.397Z,13.50
2023-05-14T00:37:19.870Z,14.03
2023-05-14T00:39:47.089Z,14.26
2023-05-14T00:42:14.158Z,13.80
2023-05-14T00:44:41.194Z,12.90
2023-05-14T00:47:08.977Z,12.19
2023-05-14T00:49:36.638Z,11.65
2023-05-14T00:52:04.261Z,11.20
2023-05-14T00:54:31.516Z,10.81
2023-05-14T00:56:59.860Z,10.49
2023-05-14T00:59:26.836Z,10.19
2023-05-14T01:01:53.873Z,9.94
2023-05-14T01:04:21.225Z,9.75
2023-05-14T01:07:07.758Z,9.61
2023-05-14T01:09:44.807Z,9.46
2023-05-14T01:12:19.632Z,9.34
2023-05-14T01:14:57.261Z,9.44
2023-05-14T01:17:28.920Z,10.46
2023-05-14T01:19:57.093Z,11.52
2023-05-14T01:22:24.248Z,12.33
2023-05-14T01:24:51.248Z,12.88
2023-05-14T01:27:46.457Z,13.31
2023-05-14T01:30:19.728Z,13.61
2023-05-14T01:32:53.876Z,13.53
2023-05-14T01:35:25.694Z,12.75
2023-05-14T01:37:55.932Z,11.96
2023-05-14T01:40:24.408Z,11.33
2023-05-14T01:42:53.264Z,10.84
2023-05-14T01:45:24.729Z,10.45
2023-05-14T01:47:52.178Z,10.11
2023-05-14T01:50:19.346Z,9.85
2023-05-14T01:52:47.228Z,9.62
2023-05-14T01:55:14.689Z,9.45
2023-05-14T01:57:41.808Z,9.43
2023-05-14T02:00:09.673Z,10.12
2023-05-14T02:02:36.691Z,10.98
2023-05-14T02:05:05.560Z,11.95
2023-05-14T02:07:33.887Z,12.62
2023-05-14T02:10:00.972Z,12.85
2023-05-14T02:12:27.867Z,12.95
2023-05-14T02:14:54.849Z,13.11
2023-05-14T02:17:21.869Z,13.27
2023-05-14T02:19:48.802Z,13.45
2023-05-14T02:22:15.777Z,13.40
2023-05-14T02:24:43.334Z,12.55
2023-05-14T02:27:10.251Z,11.68
2023-05-14T02:29:37.090Z,11.05
2023-05-14T02:32:04.408Z,10.58
2023-05-14T02:34:31.390Z,10.18
2023-05-14T02:36:58.249Z,9.83
2023-05-14T02:39:25.254Z,9.54
2023-05-14T02:41:52.132Z,9.52
2023-05-14T02:44:19.064Z,10.30
2023-05-14T02:46:46.464Z,11.27
2023-05-14T02:49:13.707Z,12.05
2023-05-14T02:51:40.604Z,12.49
2023-05-14T02:54:07.682Z,12.72
2023-05-14T02:56:34.690Z,13.02
2023-05-14T02:59:01.529Z,13.30
2023-05-14T03:01:29.124Z,13.46
2023-05-14T03:03:56.591Z,13.35
2023-05-14T03:06:23.614Z,12.55
2023-05-14T03:08:50.852Z,11.73
2023-05-14T03:11:17.884Z,11.05
2023-05-14T03:13:44.733Z,10.51
2023-05-14T03:16:11.708Z,10.09
2023-05-14T03:18:38.569Z,10.04
2023-05-14T03:21:06.295Z,11.15
2023-05-14T03:23:35.381Z,12.12
2023-05-14T03:26:02.656Z,12.52
2023-05-14T03:28:29.576Z,12.66
2023-05-14T03:30:56.746Z,12.56
2023-05-14T03:33:24.170Z,11.74
2023-05-14T03:35:52.128Z,10.88
2023-05-14T03:38:18.981Z,10.25
2023-05-14T03:40:46.455Z,9.79
2023-05-14T03:43:13.384Z,9.44
2023-05-14T03:45:40.415Z,9.11
2023-05-14T03:48:07.694Z,9.01
2023-05-14T03:50:34.737Z,9.63
2023-05-14T03:53:01.748Z,10.62
2023-05-14T03:55:28.626Z,11.48
2023-05-14T03:57:55.558Z,12.10
2023-05-14T04:00:22.896Z,12.58
2023-05-14T04:02:50.112Z,12.95
2023-05-14T04:05:17.613Z,13.25
2023-05-14T04:07:46.182Z,13.26
2023-05-14T04:10:14.568Z,12.44
2023-05-14T04:12:41.392Z,11.52
2023-05-14T04:15:09.171Z,10.81
2023-05-14T04:17:36.143Z,10.31
2023-05-14T04:20:03.487Z,9.98
2023-05-14T04:22:30.400Z,10.03
2023-05-14T04:24:57.253Z,11.16
2023-05-14T04:27:24.177Z,12.35
2023-05-14T04:29:51.431Z,13.17
2023-05-14T04:32:18.671Z,13.84
2023-05-14T04:34:47.278Z,14.13
2023-05-14T04:37:14.267Z,13.39
2023-05-14T04:39:41.132Z,12.55
2023-05-14T04:42:08.585Z,11.89
2023-05-14T04:44:36.916Z,11.39
2023-05-14T04:47:04.846Z,11.02
2023-05-14T04:49:32.200Z,10.86
2023-05-14T04:51:59.558Z,11.73
2023-05-14T04:54:26.799Z,12.90
2023-05-14T04:56:55.464Z,13.70
2023-05-14T04:59:22.815Z,14.10
2023-05-14T05:01:49.675Z,13.45
2023-05-14T05:04:16.637Z,12.70
2023-05-14T05:06:43.765Z,12.21
2023-05-14T05:09:10.802Z,11.87
2023-05-14T05:11:39.291Z,11.64
2023-05-14T05:14:06.126Z,11.48
2023-05-14T05:16:33.321Z,11.41
2023-05-14T05:19:00.257Z,11.65
2023-05-14T05:21:27.261Z,13.01
2023-05-14T05:23:54.229Z,14.32
2023-05-14T05:26:22.585Z,15.25
2023-05-14T05:28:49.430Z,15.26
2023-05-14T05:31:19.056Z,14.49
2023-05-14T05:33:46.999Z,13.89
2023-05-14T05:36:13.864Z,13.56
2023-05-14T05:38:40.776Z,13.46
2023-05-14T05:41:08.254Z,13.45
2023-05-14T05:43:35.373Z,13.49
2023-05-14T05:46:02.503Z,13.48
2023-05-14T05:48:29.463Z,13.44
2023-05-14T05:50:56.300Z,13.41
2023-05-14T05:53:23.351Z,13.36
2023-05-14T05:55:51.849Z,13.34
2023-05-14T05:58:20.035Z,13.40
2023-05-14T06:00:47.691Z,13.52
2023-05-14T06:03:15.280Z,13.64
2023-05-14T06:05:42.225Z,13.79
2023-05-14T06:08:10.122Z,13.93
2023-05-14T06:10:37.895Z,14.07
2023-05-14T06:13:04.924Z,14.22
2023-05-14T06:15:31.875Z,14.31
2023-05-14T06:17:58.891Z,14.37
2023-05-14T06:20:26.143Z,14.46
2023-05-14T06:22:53.216Z,14.51
2023-05-14T06:25:20.073Z,14.58
2023-05-14T06:27:47.018Z,14.67
2023-05-14T06:30:14.579Z,14.73
2023-05-14T06:32:41.570Z,14.81
2023-05-14T06:35:09.178Z,14.83
2023-05-14T06:37:36.105Z,14.88
2023-05-14T06:40:03.970Z,14.96
2023-05-14T06:42:30.817Z,15.12
2023-05-14T06:44:57.654Z,15.28
2023-05-14T06:47:25.014Z,15.37
2023-05-14T06:49:51.969Z,15.46
2023-05-14T06:52:18.884Z,15.55
2023-05-14T06:55:00.436Z,15.63
2023-05-14T06:57:34.219Z,15.80
2023-05-14T07:00:03.299Z,15.95
2023-05-14T07:02:31.160Z,16.10
2023-05-14T07:04:58.096Z,16.26
2023-05-14T07:07:25.119Z,16.46
2023-05-14T07:09:52.070Z,16.68
2023-05-14T07:12:18.914Z,16.92
2023-05-14T07:14:46.051Z,17.15
2023-05-14T07:17:12.946Z,17.29
2023-05-14T07:19:40.049Z,17.42
2023-05-14T07:22:06.886Z,17.61
2023-05-14T07:24:33.862Z,17.86
2023-05-14T07:27:02.097Z,18.08
2023-05-14T07:29:30.696Z,18.27
2023-05-14T07:31:57.820Z,18.32
2023-05-14T07:34:24.691Z,18.41
2023-05-14T07:36:51.599Z,18.62
2023-05-14T07:39:18.441Z,18.86
2023-05-14T07:41:45.296Z,19.07
2023-05-14T07:44:12.329Z,19.09
2023-05-14T07:46:39.064Z,19.17
2023-05-14T07:49:05.903Z,19.40
2023-05-14T07:51:33.687Z,19.65
2023-05-14T07:54:01.294Z,19.88
2023-05-14T07:56:32.813Z,20.02
2023-05-14T07:59:00.108Z,20.08
2023-05-14T08:01:27.492Z,20.21
2023-05-14T08:03:54.666Z,20.41
2023-05-14T08:06:23.292Z,20.57
2023-05-14T08:08:50.166Z,20.69
2023-05-14T08:11:17.151Z,20.82
2023-05-14T08:13:44.138Z,21.09
2023-05-14T08:16:10.984Z,21.41
2023-05-14T08:18:38.272Z,21.83
2023-05-14T08:21:05.852Z,22.26
2023-05-14T08:23:32.838Z,22.46
2023-05-14T08:26:00.332Z,22.49
2023-05-14T08:28:27.373Z,22.45
2023-05-14T08:30:54.745Z,22.41
2023-05-14T08:33:22.110Z,22.52
2023-05-14T08:35:54.101Z,22.59
2023-05-14T08:38:21.295Z,22.58
2023-05-14T08:41:01.119Z,22.64
2023-05-14T08:43:36.095Z,22.66
2023-05-14T08:46:06.668Z,22.68
2023-05-14T08:48:34.850Z,22.65
2023-05-14T08:51:02.806Z,22.56
2023-05-14T08:53:31.769Z,22.47
2023-05-14T08:56:01.148Z,22.55
2023-05-14T08:58:29.100Z,22.72
2023-05-14T09:00:57.054Z,22.92
2023-05-14T09:03:24.686Z,23.01
2023-05-14T09:05:52.741Z,23.09
2023-05-14T09:08:20.202Z,23.14
2023-05-14T09:10:47.210Z,23.04
2023-05-14T09:13:14.969Z,22.83
2023-05-14T09:15:42.158Z,22.66
2023-05-14T09:18:10.439Z,22.59
2023-05-14T09:20:39.732Z,22.52
2023-05-14T09:23:06.569Z,22.47
2023-05-14T09:25:33.926Z,22.52
2023-05-14T09:28:07.457Z,22.63
2023-05-14T09:30:35.327Z,22.64
2023-05-14T09:33:04.457Z,22.74
2023-05-14T09:35:32.847Z,22.91
2023-05-14T09:37:59.939Z,22.99
2023-05-14T09:40:27.961Z,23.08
2023-05-14T09:42:55.781Z,23.03
2023-05-14T09:45:22.682Z,22.90
2023-05-14T09:47:50.185Z,22.85
2023-05-14T09:50:17.495Z,22.85
2023-05-14T09:52:44.490Z,22.81
2023-05-14T09:55:11.610Z,22.67
2023-05-14T09:57:38.719Z,22.52
2023-05-14T10:00:07.101Z,22.50
2023-05-14T10:02:38.685Z,22.62
2023-05-14T10:05:07.557Z,22.76
2023-05-14T10:07:41.953Z,22.76
2023-05-14T10:10:13.813Z,22.62
2023-05-14T10:12:41.539Z,22.47
2023-05-14T10:15:18.322Z,22.36
2023-05-14T10:17:50.566Z,22.28
2023-05-14T10:20:18.797Z,22.33
2023-05-14T10:22:46.491Z,22.43
2023-05-14T10:25:14.308Z,22.52
2023-05-14T10:27:42.656Z,22.58
2023-05-14T10:30:13.268Z,22.53
2023-05-14T10:32:42.193Z,22.44
2023-05-14T10:35:21.058Z,22.34
2023-05-14T10:37:51.560Z,22.31
2023-05-14T10:40:19.664Z,22.28
2023-05-14T10:42:47.179Z,22.06
2023-05-14T10:45:15.955Z,21.79
2023-05-14T10:47:46.157Z,21.70
2023-05-14T10:50:15.582Z,21.66
2023-05-14T10:52:46.524Z,21.68
2023-05-14T10:55:15.520Z,21.75
2023-05-14T10:57:44.488Z,21.73
2023-05-14T11:00:13.048Z,21.61
2023-05-14T11:02:42.236Z,21.46
2023-05-14T11:05:19.674Z,21.45
2023-05-14T11:07:49.024Z,21.47
2023-05-14T11:10:18.950Z,21.48
2023-05-14T11:12:51.239Z,21.43
2023-05-14T11:15:23.723Z,21.39
2023-05-14T11:17:51.994Z,21.30
2023-05-14T11:20:20.334Z,21.25
2023-05-14T11:22:48.921Z,21.22
2023-05-14T11:25:16.612Z,21.26
2023-05-14T11:27:45.615Z,21.32
2023-05-14T11:30:20.280Z,21.37
2023-05-14T11:32:49.692Z,21.43
2023-05-14T11:35:17.933Z,21.39
2023-05-14T11:37:52.565Z,21.41
2023-05-14T11:40:20.420Z,21.40
2023-05-14T11:42:47.644Z,21.34
2023-05-14T11:45:24.585Z,21.27
2023-05-14T11:47:54.130Z,21.25
2023-05-14T11:50:22.646Z,21.26
2023-05-14T11:52:51.193Z,21.28
2023-05-14T11:55:18.825Z,21.32
2023-05-14T11:57:46.257Z,21.34
2023-05-14T12:00:17.303Z,21.32
2023-05-14T12:02:44.424Z,21.34
2023-05-14T12:05:13.608Z,21.34
2023-05-14T12:07:42.108Z,21.37
2023-05-14T12:10:12.094Z,21.44
2023-05-14T12:12:39.137Z,21.49
2023-05-14T12:15:13.776Z,21.55
2023-05-14T12:17:41.587Z,21.54
2023-05-14T12:20:13.227Z,21.49
2023-05-14T12:22:42.808Z,21.44
2023-05-14T12:25:14.581Z,21.43
2023-05-14T12:27:44.985Z,21.50
2023-05-14T12:32:47.883Z,21.58
2023-05-14T12:35:14.877Z,21.52
2023-05-14T12:37:43.030Z,21.52
2023-05-14T12:40:10.429Z,21.52
2023-05-14T12:42:38.031Z,21.50
2023-05-14T12:45:08.215Z,21.44
2023-05-14T12:47:36.644Z,21.38
2023-05-14T12:50:04.340Z,21.30
2023-05-14T12:55:02.008Z,21.28
2023-05-14T12:57:30.441Z,21.34
2023-05-14T12:59:58.140Z,21.41
2023-05-14T13:02:25.071Z,21.45
2023-05-14T13:04:52.053Z,21.42
2023-05-14T13:07:18.953Z,21.44
2023-05-14T13:09:45.899Z,21.45
2023-05-14T13:12:13.075Z,21.47
2023-05-14T13:14:40.007Z,21.43
2023-05-14T13:17:08.387Z,21.40
2023-05-14T13:19:35.652Z,21.41
2023-05-14T13:22:02.613Z,21.37
2023-05-14T13:24:29.527Z,21.33
2023-05-14T13:26:56.805Z,21.26
2023-05-14T13:29:24.759Z,21.18
2023-05-14T13:31:52.066Z,21.12
2023-05-14T13:34:19.285Z,21.08
2023-05-14T13:36:47.594Z,21.01
2023-05-14T13:39:14.811Z,20.93
2023-05-14T13:41:42.295Z,20.87
2023-05-14T13:44:09.492Z,20.77
2023-05-14T13:46:36.471Z,20.75
2023-05-14T13:49:03.442Z,20.73
2023-05-14T13:51:31.607Z,20.70
2023-05-14T13:53:59.137Z,20.65
2023-05-14T13:56:26.519Z,20.61
2023-05-14T13:59:03.158Z,20.51
2023-05-14T14:01:36.695Z,20.45
2023-05-14T14:04:03.729Z,20.47
2023-05-14T14:06:34.878Z,20.50
2023-05-14T14:09:02.273Z,20.54
2023-05-14T14:11:29.273Z,20.59
2023-05-14T14:13:56.248Z,20.64
2023-05-14T14:16:23.257Z,20.65
2023-05-14T14:18:50.768Z,20.55
2023-05-14T14:21:24.916Z,20.49
2023-05-14T14:23:52.120Z,20.43
2023-05-14T14:26:19.257Z,20.39
2023-05-14T14:28:46.269Z,20.36
2023-05-14T14:31:13.529Z,20.30
2023-05-14T14:33:40.684Z,20.26
2023-05-14T14:36:08.190Z,20.21
2023-05-14T14:38:35.375Z,20.15
2023-05-14T14:41:03.474Z,20.13
2023-05-14T14:43:30.509Z,20.13
2023-05-14T14:45:58.394Z,20.12
2023-05-14T14:48:37.843Z,20.12
2023-05-14T14:51:06.794Z,20.08
2023-05-14T14:53:35.176Z,20.02
2023-05-14T14:56:03.357Z,20.02
2023-05-14T14:58:31.662Z,20.01
2023-05-14T15:00:59.331Z,19.97
2023-05-14T15:03:27.298Z,19.93
2023-05-14T15:05:54.589Z,19.92
2023-05-14T15:08:27.760Z,19.93
2023-05-14T15:10:56.338Z,19.94
2023-05-14T15:13:23.680Z,19.94
2023-05-14T15:15:52.939Z,19.94
2023-05-14T15:18:20.252Z,19.93
2023-05-14T15:20:47.722Z,19.92
2023-05-14T15:23:14.853Z,19.90
2023-05-14T15:25:41.926Z,19.90
2023-05-14T15:28:09.128Z,19.90
2023-05-14T15:30:36.237Z,19.88
2023-05-14T15:33:03.295Z,19.87
2023-05-14T15:35:30.626Z,19.84
2023-05-14T15:37:57.658Z,19.81
2023-05-14T15:40:25.106Z,19.76
2023-05-14T15:42:52.378Z,19.72
2023-05-14T15:45:19.424Z,19.70
2023-05-14T15:47:46.288Z,19.65
2023-05-14T15:50:13.661Z,19.61
2023-05-14T15:52:41.858Z,19.56
2023-05-14T15:55:09.549Z,19.50
2023-05-14T15:57:36.879Z,19.42
2023-05-14T16:00:11.419Z,19.35
2023-05-14T16:02:39.938Z,19.24
2023-05-14T16:05:08.723Z,19.17
2023-05-14T16:07:36.429Z,19.07
2023-05-14T16:10:04.065Z,18.98
2023-05-14T16:12:31.601Z,18.90
2023-05-14T16:14:59.343Z,18.82
2023-05-14T16:17:30.810Z,18.73
2023-05-14T16:19:57.891Z,18.63
2023-05-14T16:22:24.860Z,18.54
2023-05-14T16:24:51.819Z,18.44
2023-05-14T16:27:19.514Z,18.34
2023-05-14T16:29:46.577Z,18.23
2023-05-14T16:32:13.842Z,18.10
2023-05-14T16:34:41.490Z,17.99
2023-05-14T16:37:09.285Z,17.88
2023-05-14T16:39:37.945Z,17.78
2023-05-14T16:42:05.797Z,17.69
2023-05-14T16:44:32.898Z,17.61
2023-05-14T16:46:59.837Z,17.54
2023-05-14T16:49:26.692Z,17.47
2023-05-14T16:51:53.567Z,17.42
2023-05-14T16:54:20.511Z,17.37
2023-05-14T16:56:48.500Z,17.31
2023-05-14T16:59:16.327Z,17.47
2023-05-14T17:01:44.770Z,18.59
2023-05-14T17:04:11.827Z,19.73
2023-05-14T17:06:38.900Z,20.40
2023-05-14T17:09:07.195Z,20.58
2023-05-14T17:11:34.084Z,19.80
2023-05-14T17:14:00.957Z,18.88
2023-05-14T17:16:28.510Z,18.22
2023-05-14T17:18:55.807Z,17.73
2023-05-14T17:21:23.491Z,17.33
2023-05-14T17:23:50.873Z,16.99
2023-05-14T17:26:17.929Z,16.95
2023-05-14T17:28:45.016Z,17.90
2023-05-14T17:31:12.022Z,18.72
2023-05-14T17:33:39.452Z,19.08
2023-05-14T17:36:07.243Z,18.66
2023-05-14T17:38:35.242Z,17.67
2023-05-14T17:41:02.270Z,17.08
2023-05-14T17:43:29.405Z,17.70
2023-05-14T17:45:56.407Z,18.41
2023-05-14T17:48:24.414Z,18.82
2023-05-14T17:50:52.856Z,19.07
2023-05-14T17:53:19.747Z,19.31
2023-05-14T17:55:46.870Z,19.49
2023-05-14T17:58:16.364Z,19.55
2023-05-14T18:00:44.530Z,19.35
2023-05-14T18:03:11.962Z,18.43
2023-05-14T18:05:39.258Z,17.59
2023-05-14T18:08:06.485Z,16.96
2023-05-14T18:10:33.869Z,16.48
2023-05-14T18:13:01.739Z,16.11
2023-05-14T18:15:31.874Z,15.99
2023-05-14T18:17:58.958Z,16.81
2023-05-14T18:20:26.272Z,17.83
2023-05-14T18:22:53.268Z,18.51
2023-05-14T18:25:20.324Z,18.93
2023-05-14T18:27:47.506Z,19.31
2023-05-14T18:30:16.055Z,19.65
2023-05-14T18:32:45.169Z,19.91
2023-05-14T18:35:13.546Z,20.19
2023-05-14T18:37:41.310Z,20.31
2023-05-14T18:40:09.269Z,20.36
2023-05-14T18:42:36.780Z,20.46
2023-05-14T18:45:04.964Z,20.59
2023-05-14T18:47:33.596Z,20.76
2023-05-14T18:50:02.251Z,20.97
2023-05-14T18:52:29.982Z,20.92
2023-05-14T18:54:57.172Z,19.97
2023-05-14T18:57:24.430Z,18.86
2023-05-14T18:59:51.516Z,18.01
2023-05-14T19:02:19.075Z,17.36
2023-05-14T19:07:15.990Z,17.90
2023-05-14T19:09:43.126Z,18.74
2023-05-14T19:12:10.091Z,19.36
2023-05-14T19:14:37.261Z,19.80
2023-05-14T19:17:05.288Z,20.08
2023-05-14T19:19:32.302Z,20.31
2023-05-14T19:21:59.342Z,20.51
2023-05-14T19:24:26.431Z,20.67
2023-05-14T19:26:53.834Z,20.55
2023-05-14T19:29:20.789Z,19.58
2023-05-14T19:31:47.976Z,18.55
2023-05-14T19:34:15.436Z,17.83
2023-05-14T19:36:42.733Z,17.49
2023-05-14T19:39:10.382Z,18.09
2023-05-14T19:41:37.379Z,18.66
2023-05-14T19:44:04.545Z,18.92
2023-05-14T19:46:32.036Z,19.06
2023-05-14T19:48:59.440Z,19.16
2023-05-14T19:51:26.380Z,19.32
2023-05-14T19:53:53.577Z,19.43
2023-05-14T19:56:22.139Z,19.39
2023-05-14T19:58:49.148Z,19.31
2023-05-14T20:01:16.136Z,19.23
2023-05-14T20:03:43.798Z,19.16
2023-05-14T20:06:11.336Z,19.15
2023-05-14T20:08:38.723Z,19.20
2023-05-14T20:11:06.862Z,19.23
2023-05-14T20:13:36.274Z,19.24
2023-05-14T20:16:04.053Z,19.26
2023-05-14T20:18:32.029Z,19.33
2023-05-14T20:20:59.017Z,19.40
2023-05-14T20:23:26.214Z,19.31
2023-05-14T20:25:53.656Z,19.11
2023-05-14T20:28:21.281Z,18.91
2023-05-14T20:30:48.178Z,18.72
2023-05-14T20:33:15.375Z,18.53
2023-05-14T20:35:44.188Z,18.34
2023-05-14T20:38:13.046Z,18.21
2023-05-14T20:40:41.338Z,18.24
2023-05-14T20:43:08.268Z,18.20
2023-05-14T20:45:36.201Z,18.10
2023-05-14T20:48:06.483Z,17.94
2023-05-14T20:50:33.802Z,17.82
2023-05-14T20:53:01.451Z,17.75
2023-05-14T20:55:28.407Z,17.71
2023-05-14T20:57:55.344Z,17.75
2023-05-14T21:00:22.291Z,17.80
2023-05-14T21:02:49.941Z,17.82
2023-05-14T21:05:17.702Z,17.86
2023-05-14T21:07:44.642Z,17.88
2023-05-14T21:10:11.809Z,17.89
2023-05-14T21:12:38.837Z,17.82
2023-05-14T21:15:06.288Z,17.80
2023-05-14T21:17:33.540Z,17.87
2023-05-14T21:20:01.223Z,18.00
2023-05-14T21:22:28.251Z,18.14
2023-05-14T21:24:55.915Z,18.24
2023-05-14T21:27:22.866Z,18.28
2023-05-14T21:29:50.456Z,18.33
2023-05-14T21:32:17.509Z,18.45
2023-05-14T21:34:44.914Z,18.56
2023-05-14T21:37:11.978Z,18.69
2023-05-14T21:39:38.942Z,18.79
2023-05-14T21:42:06.662Z,18.77
2023-05-14T21:44:33.662Z,18.66
2023-05-14T21:47:01.104Z,18.56
2023-05-14T21:49:28.375Z,18.55
2023-05-14T21:51:55.495Z,18.52
2023-05-14T21:54:22.638Z,18.48
2023-05-14T21:56:49.983Z,18.49
2023-05-14T21:59:16.796Z,18.54
2023-05-14T22:04:14.151Z,18.46
2023-05-14T22:06:41.978Z,18.44
2023-05-14T22:09:11.575Z,18.45
2023-05-14T22:11:38.634Z,18.51
2023-05-14T22:14:05.653Z,18.77
2023-05-14T22:16:33.772Z,19.00
2023-05-14T22:19:00.815Z,19.12
2023-05-14T22:21:28.081Z,19.26
2023-05-14T22:23:55.004Z,19.47
2023-05-14T22:26:22.154Z,19.62
2023-05-14T22:28:49.911Z,19.75
2023-05-14T22:31:17.289Z,19.88
2023-05-14T22:33:44.302Z,19.99
2023-05-14T22:36:11.742Z,19.89
2023-05-14T22:38:41.486Z,18.92
2023-05-14T22:41:08.453Z,17.94
2023-05-14T22:43:35.394Z,17.14
2023-05-14T22:46:02.478Z,16.87
2023-05-14T22:48:29.678Z,17.71
2023-05-14T22:50:56.702Z,18.48
2023-05-14T22:53:25.082Z,19.00
2023-05-14T22:55:52.398Z,19.45
2023-05-14T22:58:19.276Z,19.78
2023-05-14T23:00:46.243Z,20.02
2023-05-14T23:03:13.022Z,20.18
2023-05-14T23:05:39.834Z,20.08
2023-05-14T23:08:07.116Z,19.05
2023-05-14T23:10:35.807Z,17.90
2023-05-14T23:13:02.744Z,16.95
2023-05-14T23:15:29.948Z,16.52
2023-05-14T23:17:56.938Z,17.34
2023-05-14T23:20:23.854Z,18.25
2023-05-14T23:22:50.891Z,18.87
2023-05-14T23:25:17.687Z,19.27
2023-05-14T23:27:44.511Z,19.55
2023-05-14T23:30:12.361Z,19.75
2023-05-14T23:32:39.203Z,19.92
2023-05-14T23:35:11.261Z,20.08
2023-05-14T23:37:50.861Z,20.20
2023-05-14T23:40:25.121Z,20.01
2023-05-14T23:42:59.358Z,18.86
2023-05-14T23:45:31.958Z,17.66
2023-05-14T23:48:03.517Z,16.75
2023-05-14T23:50:41.886Z,16.44
2023-05-14T23:55:51.778Z,18.09
2023-05-14T23:58:18.620Z,18.55
